Terminal Aerodrome Forecast
Issued by NWS Charleston, SC

Home | Current Version | Previous Version | Text Only | Print | Product List | Glossary On
Versions: 1 2 3 4 5 6 7 8 9 10 11 12 13 14 15 16 17 18 19 20 21 22 23 24 25 26 27 28 29 30 31 32 33 34
000
FTUS42 KCHS 181100
TAFCHS
TAF
KCHS 181135Z 1812/1912 02004KT P6SM SCT020 BKN180
      TEMPO 1812/1814 BKN025
     FM181800 11007KT P6SM VCSH SCT035 BKN200
     FM190000 06004KT P6SM SCT025 BKN150=

USA.gov is the U.S. government's official web portal to all federal, state and local government web resources and services.